McWilliams, Alabama
Current Conditions -  °F | °C
As of 7:56 AM on Friday 26 Dec 2014 (Local Time) from KPRN Reporting Station
Clear Clear  
Wind Chill: 41°   Ceiling: Unl
Heat Index: 41°   Visibility: 10mi
Dew Point: 37°   Wind: 3mph
Humidity: 86%   Direction: 360°N
Pressure: 30.31"   Gusts: NA
Location:  31.83°N, 87.09°W
Report Text: KPRN 261356Z AUTO 36003KT 10SM CLR 05/03 A3031 RMK AO2 SLP265 T00500028 $
Loading
Personal Weather Stations






























Interactive Weather Map New forecast layout! Learn more

10-Day Weather Forecast

Advertisements
Track Severe Weather on mobile